sensor_id;sensor_type;location;lat;lon;timestamp;pressure;altitude;pressure_sealevel;temperature;humidity
33191;BME280;19554;42.652;23.364;2022-07-05T00:01:50;94774.72;;;23.35;36.88
33191;BME280;19554;42.652;23.364;2022-07-05T00:04:15;94692.84;;;22.79;37.07
33191;BME280;19554;42.652;23.364;2022-07-05T00:06:41;94772.16;;;23.23;37.61
33191;BME280;19554;42.652;23.364;2022-07-05T00:09:26;94684.06;;;22.66;37.71
33191;BME280;19554;42.652;23.364;2022-07-05T00:11:51;94758.94;;;22.79;38.17
33191;BME280;19554;42.652;23.364;2022-07-05T00:14:17;94745.34;;;22.79;38.46
33191;BME280;19554;42.652;23.364;2022-07-05T00:16:42;94752.66;;;22.94;37.55
33191;BME280;19554;42.652;23.364;2022-07-05T00:19:08;94751.91;;;22.98;37.38
33191;BME280;19554;42.652;23.364;2022-07-05T00:21:33;94739.22;;;22.86;37.35
33191;BME280;19554;42.652;23.364;2022-07-05T00:23:58;94754.84;;;22.89;37.42
33191;BME280;19554;42.652;23.364;2022-07-05T00:26:24;94746.63;;;22.85;37.49
33191;BME280;19554;42.652;23.364;2022-07-05T00:28:49;94743.56;;;22.90;37.65
33191;BME280;19554;42.652;23.364;2022-07-05T00:31:15;94756.78;;;22.88;37.37
33191;BME280;19554;42.652;23.364;2022-07-05T00:33:40;94743.56;;;22.90;37.17
33191;BME280;19554;42.652;23.364;2022-07-05T00:36:06;94746.63;;;22.85;37.39
33191;BME280;19554;42.652;23.364;2022-07-05T00:38:31;94731.00;;;22.82;37.01
33191;BME280;19554;42.652;23.364;2022-07-05T00:40:56;94689.13;;;22.44;37.15
33191;BME280;19554;42.652;23.364;2022-07-05T00:43:22;94697.00;;;22.50;37.74
33191;BME280;19554;42.652;23.364;2022-07-05T00:45:47;94738.72;;;22.80;37.64
33191;BME280;19554;42.652;23.364;2022-07-05T00:48:13;94740.50;;;22.92;37.31
33191;BME280;19554;42.652;23.364;2022-07-05T00:50:39;94743.56;;;23.10;36.87
33191;BME280;19554;42.652;23.364;2022-07-05T00:53:05;94745.78;;;23.27;36.50
33191;BME280;19554;42.652;23.364;2022-07-05T00:55:31;94740.81;;;23.10;36.85
33191;BME280;19554;42.652;23.364;2022-07-05T00:57:56;94740.44;;;22.88;37.23
33191;BME280;19554;42.652;23.364;2022-07-05T01:00:22;94640.28;;;22.29;37.54
33191;BME280;19554;42.652;23.364;2022-07-05T01:02:48;94735.88;;;22.73;37.42
33191;BME280;19554;42.652;23.364;2022-07-05T01:05:13;94672.88;;;22.48;37.68
33191;BME280;19554;42.652;23.364;2022-07-05T01:07:39;94735.88;;;22.73;38.23
33191;BME280;19554;42.652;23.364;2022-07-05T01:10:05;94678.13;;;22.37;38.45
33191;BME280;19554;42.652;23.364;2022-07-05T01:12:31;94744.66;;;22.63;38.81
33191;BME280;19554;42.652;23.364;2022-07-05T01:14:57;94741.03;;;22.78;38.55
33191;BME280;19554;42.652;23.364;2022-07-05T01:17:23;94748.25;;;22.90;38.17
33191;BME280;19554;42.652;23.364;2022-07-05T01:19:49;94721.28;;;22.81;38.25
33191;BME280;19554;42.652;23.364;2022-07-05T01:22:18;94695.06;;;22.73;37.81
33191;BME280;19554;42.652;23.364;2022-07-05T01:24:48;94762.78;;;23.21;37.62
33191;BME280;19554;42.652;23.364;2022-07-05T01:27:14;94761.28;;;23.23;37.59
33191;BME280;19554;42.652;23.364;2022-07-05T01:29:41;94760.31;;;23.12;37.82
33191;BME280;19554;42.652;23.364;2022-07-05T01:32:07;94701.31;;;22.74;38.14
33191;BME280;19554;42.652;23.364;2022-07-05T01:34:37;94766.00;;;23.26;37.88
33191;BME280;19554;42.652;23.364;2022-07-05T01:37:03;94766.53;;;23.35;37.78
33191;BME280;19554;42.652;23.364;2022-07-05T01:39:30;94689.31;;;22.98;37.95
33191;BME280;19554;42.652;23.364;2022-07-05T01:41:55;94757.13;;;23.56;37.97
33191;BME280;19554;42.652;23.364;2022-07-05T01:44:21;94752.63;;;23.67;37.58
33191;BME280;19554;42.652;23.364;2022-07-05T01:46:51;94720.53;;;23.57;37.58
33191;BME280;19554;42.652;23.364;2022-07-05T01:49:19;94751.03;;;23.93;38.32
33191;BME280;19554;42.652;23.364;2022-07-05T01:51:54;94749.59;;;24.02;38.00
33191;BME280;19554;42.652;23.364;2022-07-05T01:54:20;94704.97;;;23.84;38.40
33191;BME280;19554;42.652;23.364;2022-07-05T01:56:46;94718.00;;;23.98;38.97
33191;BME280;19554;42.652;23.364;2022-07-05T01:59:11;94668.56;;;23.69;39.17
33191;BME280;19554;42.652;23.364;2022-07-05T02:01:39;94731.50;;;24.17;39.25
33191;BME280;19554;42.652;23.364;2022-07-05T02:04:06;94743.28;;;24.25;39.44
33191;BME280;19554;42.652;23.364;2022-07-05T02:06:33;94746.34;;;24.23;38.90
33191;BME280;19554;42.652;23.364;2022-07-05T02:09:05;94740.88;;;24.20;38.58
33191;BME280;19554;42.652;23.364;2022-07-05T02:11:31;94744.75;;;24.19;38.74
33191;BME280;19554;42.652;23.364;2022-07-05T02:13:59;94740.88;;;24.20;38.46
33191;BME280;19554;42.652;23.364;2022-07-05T02:16:27;94738.00;;;24.09;38.77
33191;BME280;19554;42.652;23.364;2022-07-05T02:18:53;94740.75;;;24.09;38.99
33191;BME280;19554;42.652;23.364;2022-07-05T02:21:18;94686.59;;;23.77;39.18
33191;BME280;19554;42.652;23.364;2022-07-05T02:23:44;94742.91;;;23.96;37.92
33191;BME280;19554;42.652;23.364;2022-07-05T02:26:10;94736.56;;;23.88;37.68
33191;BME280;19554;42.652;23.364;2022-07-05T02:28:35;94749.81;;;23.86;39.19
33191;BME280;19554;42.652;23.364;2022-07-05T02:31:01;94758.28;;;23.81;39.05
33191;BME280;19554;42.652;23.364;2022-07-05T02:33:26;94761.41;;;23.80;39.91
33191;BME280;19554;42.652;23.364;2022-07-05T02:35:52;94745.06;;;23.57;38.55
33191;BME280;19554;42.652;23.364;2022-07-05T02:38:17;94740.69;;;23.49;38.60
33191;BME280;19554;42.652;23.364;2022-07-05T02:40:42;94760.19;;;23.54;39.62
33191;BME280;19554;42.652;23.364;2022-07-05T02:43:08;94754.59;;;23.44;39.25
33191;BME280;19554;42.652;23.364;2022-07-05T02:45:33;94769.78;;;23.45;39.42
33191;BME280;19554;42.652;23.364;2022-07-05T02:47:59;94714.75;;;23.09;40.45
33191;BME280;19554;42.652;23.364;2022-07-05T02:50:24;94773.38;;;23.49;42.04
33191;BME280;19554;42.652;23.364;2022-07-05T02:52:50;94771.44;;;23.49;42.87
33191;BME280;19554;42.652;23.364;2022-07-05T02:55:15;94772.63;;;23.52;43.27
33191;BME280;19554;42.652;23.364;2022-07-05T02:57:40;94778.00;;;23.48;43.98
33191;BME280;19554;42.652;23.364;2022-07-05T03:00:06;94776.38;;;23.44;44.62
33191;BME280;19554;42.652;23.364;2022-07-05T03:02:32;94775.56;;;23.39;44.92
33191;BME280;19554;42.652;23.364;2022-07-05T03:04:58;94782.56;;;23.40;45.05
33191;BME280;19554;42.652;23.364;2022-07-05T03:07:23;94777.06;;;23.37;45.38
33191;BME280;19554;42.652;23.364;2022-07-05T03:09:48;94764.53;;;23.32;45.19
33191;BME280;19554;42.652;23.364;2022-07-05T03:12:14;94771.38;;;23.46;45.24
33191;BME280;19554;42.652;23.364;2022-07-05T03:14:39;94781.22;;;23.54;44.58
33191;BME280;19554;42.652;23.364;2022-07-05T03:17:05;94769.31;;;23.65;44.72
33191;BME280;19554;42.652;23.364;2022-07-05T03:19:30;94771.81;;;23.74;44.42
33191;BME280;19554;42.652;23.364;2022-07-05T03:21:56;94770.41;;;23.84;44.11
33191;BME280;19554;42.652;23.364;2022-07-05T03:24:21;94756.09;;;23.91;44.07
33191;BME280;19554;42.652;23.364;2022-07-05T03:26:47;94765.63;;;24.04;44.03
33191;BME280;19554;42.652;23.364;2022-07-05T03:29:13;94768.66;;;23.99;44.11
33191;BME280;19554;42.652;23.364;2022-07-05T03:31:38;94752.19;;;23.92;44.13
33191;BME280;19554;42.652;23.364;2022-07-05T03:34:04;94760.00;;;24.23;44.07
33191;BME280;19554;42.652;23.364;2022-07-05T03:36:29;94755.06;;;24.32;43.90
33191;BME280;19554;42.652;23.364;2022-07-05T03:38:55;94769.63;;;24.44;43.34
33191;BME280;19554;42.652;23.364;2022-07-05T03:41:21;94767.06;;;24.58;43.19
33191;BME280;19554;42.652;23.364;2022-07-05T03:43:46;94764.97;;;24.81;43.01
33191;BME280;19554;42.652;23.364;2022-07-05T03:46:12;94754.25;;;24.99;42.54
33191;BME280;19554;42.652;23.364;2022-07-05T03:48:37;94758.38;;;25.23;41.92
33191;BME280;19554;42.652;23.364;2022-07-05T03:51:03;94757.00;;;25.44;41.34
33191;BME280;19554;42.652;23.364;2022-07-05T03:53:28;94752.44;;;25.66;41.15
33191;BME280;19554;42.652;23.364;2022-07-05T03:55:53;94717.66;;;25.59;40.52
33191;BME280;19554;42.652;23.364;2022-07-05T03:58:19;94756.97;;;25.95;40.27
33191;BME280;19554;42.652;23.364;2022-07-05T04:00:44;94758.19;;;26.05;40.53
33191;BME280;19554;42.652;23.364;2022-07-05T04:03:10;94752.00;;;26.19;39.93
33191;BME280;19554;42.652;23.364;2022-07-05T04:05:36;94757.50;;;26.26;40.33
33191;BME280;19554;42.652;23.364;2022-07-05T04:08:01;94757.53;;;26.30;39.88
33191;BME280;19554;42.652;23.364;2022-07-05T04:10:27;94755.22;;;26.46;39.65
33191;BME280;19554;42.652;23.364;2022-07-05T04:12:53;94750.22;;;26.62;39.75
33191;BME280;19554;42.652;23.364;2022-07-05T04:15:18;94705.22;;;26.53;39.18
33191;BME280;19554;42.652;23.364;2022-07-05T04:20:12;94731.06;;;26.69;39.60
33191;BME280;19554;42.652;23.364;2022-07-05T04:22:38;94750.69;;;26.93;39.47
33191;BME280;19554;42.652;23.364;2022-07-05T04:25:03;94755.41;;;27.07;38.99
33191;BME280;19554;42.652;23.364;2022-07-05T04:27:41;94732.69;;;27.06;38.88
33191;BME280;19554;42.652;23.364;2022-07-05T04:30:08;94756.22;;;27.43;39.50
33191;BME280;19554;42.652;23.364;2022-07-05T04:32:34;94689.25;;;26.94;39.88
33191;BME280;19554;42.652;23.364;2022-07-05T04:34:59;94681.75;;;26.48;40.53
33191;BME280;19554;42.652;23.364;2022-07-05T04:37:24;94751.44;;;26.76;41.15
33191;BME280;19554;42.652;23.364;2022-07-05T04:39:50;94746.81;;;27.08;40.52
33191;BME280;19554;42.652;23.364;2022-07-05T04:42:15;94756.19;;;27.07;39.37
33191;BME280;19554;42.652;23.364;2022-07-05T04:44:41;94755.38;;;26.89;39.09
33191;BME280;19554;42.652;23.364;2022-07-05T04:47:06;94756.19;;;27.07;38.55
33191;BME280;19554;42.652;23.364;2022-07-05T04:49:31;94758.56;;;27.23;37.92
33191;BME280;19554;42.652;23.364;2022-07-05T04:51:57;94755.44;;;27.21;36.05
33191;BME280;19554;42.652;23.364;2022-07-05T04:54:22;94753.09;;;27.12;35.28
33191;BME280;19554;42.652;23.364;2022-07-05T04:56:48;94753.06;;;26.98;35.77
33191;BME280;19554;42.652;23.364;2022-07-05T04:59:13;94756.63;;;27.34;35.70
33191;BME280;19554;42.652;23.364;2022-07-05T05:01:38;94741.72;;;27.17;35.21
33191;BME280;19554;42.652;23.364;2022-07-05T05:04:04;94727.25;;;27.31;34.99
33191;BME280;19554;42.652;23.364;2022-07-05T05:06:29;94747.59;;;27.87;34.05
33191;BME280;19554;42.652;23.364;2022-07-05T05:08:55;94749.94;;;27.89;33.84
33191;BME280;19554;42.652;23.364;2022-07-05T05:11:20;94744.44;;;27.75;33.54
33191;BME280;19554;42.652;23.364;2022-07-05T05:13:46;94762.47;;;27.58;34.04
33191;BME280;19554;42.652;23.364;2022-07-05T05:16:12;94759.34;;;27.45;34.02
33191;BME280;19554;42.652;23.364;2022-07-05T05:18:38;94760.13;;;27.21;34.38
33191;BME280;19554;42.652;23.364;2022-07-05T05:21:03;94774.66;;;27.28;34.45
33191;BME280;19554;42.652;23.364;2022-07-05T05:23:29;94763.28;;;27.48;33.87
33191;BME280;19554;42.652;23.364;2022-07-05T05:25:55;94767.97;;;27.36;34.39
33191;BME280;19554;42.652;23.364;2022-07-05T05:28:20;94760.94;;;27.43;34.32
33191;BME280;19554;42.652;23.364;2022-07-05T05:30:46;94762.50;;;27.76;33.69
33191;BME280;19554;42.652;23.364;2022-07-05T05:33:12;94765.22;;;27.79;34.16
33191;BME280;19554;42.652;23.364;2022-07-05T05:35:37;94767.97;;;27.86;33.85
33191;BME280;19554;42.652;23.364;2022-07-05T05:38:03;94762.50;;;27.83;35.05
33191;BME280;19554;42.652;23.364;2022-07-05T05:40:29;94765.56;;;28.17;34.24
33191;BME280;19554;42.652;23.364;2022-07-05T05:42:54;94691.16;;;27.72;33.84
33191;BME280;19554;42.652;23.364;2022-07-05T05:45:21;94758.47;;;28.16;34.22
33191;BME280;19554;42.652;23.364;2022-07-05T05:47:49;94758.53;;;28.05;33.66
33191;BME280;19554;42.652;23.364;2022-07-05T05:50:24;94763.22;;;28.08;33.73
33191;BME280;19554;42.652;23.364;2022-07-05T05:52:50;94768.72;;;28.01;34.18
33191;BME280;19554;42.652;23.364;2022-07-05T05:55:17;94740.53;;;27.76;34.48
33191;BME280;19554;42.652;23.364;2022-07-05T05:57:43;94770.34;;;27.81;34.61
33191;BME280;19554;42.652;23.364;2022-07-05T06:00:09;94756.22;;;27.57;34.74
33191;BME280;19554;42.652;23.364;2022-07-05T06:02:35;94767.16;;;27.75;34.76
33191;BME280;19554;42.652;23.364;2022-07-05T06:05:01;94764.06;;;27.77;35.27
33191;BME280;19554;42.652;23.364;2022-07-05T06:07:26;94710.41;;;27.47;34.71
33191;BME280;19554;42.652;23.364;2022-07-05T06:09:52;94686.16;;;27.13;34.68
33191;BME280;19554;42.652;23.364;2022-07-05T06:12:17;94767.97;;;27.58;35.35
33191;BME280;19554;42.652;23.364;2022-07-05T06:14:43;94766.41;;;27.60;35.47
33191;BME280;19554;42.652;23.364;2022-07-05T06:17:08;94778.16;;;27.86;34.77
33191;BME280;19554;42.652;23.364;2022-07-05T06:19:34;94770.72;;;27.61;34.70
33191;BME280;19554;42.652;23.364;2022-07-05T06:21:59;94761.31;;;27.70;34.78
33191;BME280;19554;42.652;23.364;2022-07-05T06:24:25;94774.25;;;27.80;35.07
33191;BME280;19554;42.652;23.364;2022-07-05T06:26:50;94712.38;;;27.50;34.80
33191;BME280;19554;42.652;23.364;2022-07-05T06:29:15;94768.75;;;27.98;34.67
33191;BME280;19554;42.652;23.364;2022-07-05T06:31:41;94777.34;;;28.00;34.54
33191;BME280;19554;42.652;23.364;2022-07-05T06:34:06;94782.03;;;28.21;34.49
33191;BME280;19554;42.652;23.364;2022-07-05T06:36:32;94775.72;;;28.31;34.66
33191;BME280;19554;42.652;23.364;2022-07-05T06:38:58;94774.09;;;28.44;33.62
33191;BME280;19554;42.652;23.364;2022-07-05T06:41:23;94767.81;;;28.47;33.53
33191;BME280;19554;42.652;23.364;2022-07-05T06:43:48;94770.16;;;28.52;33.74
33191;BME280;19554;42.652;23.364;2022-07-05T06:46:14;94766.22;;;28.53;33.84
33191;BME280;19554;42.652;23.364;2022-07-05T06:48:39;94769.78;;;28.36;34.03
33191;BME280;19554;42.652;23.364;2022-07-05T06:51:05;94768.13;;;28.64;33.34
33191;BME280;19554;42.652;23.364;2022-07-05T06:53:31;94772.41;;;28.79;33.66
33191;BME280;19554;42.652;23.364;2022-07-05T06:55:56;94762.97;;;28.80;33.34
33191;BME280;19554;42.652;23.364;2022-07-05T06:58:22;94716.78;;;28.53;33.14
33191;BME280;19554;42.652;23.364;2022-07-05T07:00:48;94723.75;;;28.76;33.33
33191;BME280;19554;42.652;23.364;2022-07-05T07:03:13;94751.56;;;29.44;32.53
33191;BME280;19554;42.652;23.364;2022-07-05T07:05:39;94753.00;;;29.60;32.29
33191;BME280;19554;42.652;23.364;2022-07-05T07:08:04;94705.75;;;29.72;31.76
33191;BME280;19554;42.652;23.364;2022-07-05T07:10:49;94751.53;;;30.31;31.26
33191;BME280;19554;42.652;23.364;2022-07-05T07:13:14;94753.97;;;30.25;31.14
33191;BME280;19554;42.652;23.364;2022-07-05T07:15:39;94755.53;;;30.26;31.14
33191;BME280;19554;42.652;23.364;2022-07-05T07:18:06;94754.53;;;30.43;30.88
33191;BME280;19554;42.652;23.364;2022-07-05T07:20:31;94746.59;;;30.49;30.87
33191;BME280;19554;42.652;23.364;2022-07-05T07:22:57;94759.31;;;30.39;31.27
33191;BME280;19554;42.652;23.364;2022-07-05T07:25:22;94752.31;;;30.31;30.84
33191;BME280;19554;42.652;23.364;2022-07-05T07:27:52;94760.09;;;30.40;31.04
33191;BME280;19554;42.652;23.364;2022-07-05T07:30:21;94770.53;;;30.86;30.58
33191;BME280;19554;42.652;23.364;2022-07-05T07:32:47;94763.16;;;31.07;30.16
33191;BME280;19554;42.652;23.364;2022-07-05T07:35:12;94769.56;;;31.00;30.53
33191;BME280;19554;42.652;23.364;2022-07-05T07:37:38;94761.94;;;31.11;29.91
33191;BME280;19554;42.652;23.364;2022-07-05T07:40:04;94705.88;;;30.95;29.92
33191;BME280;19554;42.652;23.364;2022-07-05T07:42:29;94754.50;;;31.59;29.78
33191;BME280;19554;42.652;23.364;2022-07-05T07:44:55;94755.59;;;31.89;29.16
33191;BME280;19554;42.652;23.364;2022-07-05T07:47:21;94748.53;;;31.88;30.14
33191;BME280;19554;42.652;23.364;2022-07-05T07:49:46;94752.22;;;31.77;29.67
33191;BME280;19554;42.652;23.364;2022-07-05T07:52:12;94754.44;;;31.86;29.07
33191;BME280;19554;42.652;23.364;2022-07-05T07:54:38;94750.97;;;31.31;29.80
33191;BME280;19554;42.652;23.364;2022-07-05T07:57:03;94703.16;;;31.18;30.19
33191;BME280;19554;42.652;23.364;2022-07-05T07:59:33;94753.78;;;31.55;29.39
33191;BME280;19554;42.652;23.364;2022-07-05T08:01:59;94750.97;;;31.31;29.59
33191;BME280;19554;42.652;23.364;2022-07-05T08:04:24;94750.06;;;31.42;29.39
33191;BME280;19554;42.652;23.364;2022-07-05T08:06:50;94757.19;;;31.12;29.66
33191;BME280;19554;42.652;23.364;2022-07-05T08:09:15;94754.66;;;30.98;29.86
33191;BME280;19554;42.652;23.364;2022-07-05T08:11:41;94752.13;;;31.07;30.17
33191;BME280;19554;42.652;23.364;2022-07-05T08:14:07;94706.28;;;30.62;30.01
33191;BME280;19554;42.652;23.364;2022-07-05T08:16:32;94753.13;;;30.93;30.18
33191;BME280;19554;42.652;23.364;2022-07-05T08:18:58;94747.00;;;31.09;30.48
33191;BME280;19554;42.652;23.364;2022-07-05T08:21:42;94742.28;;;31.36;29.68
33191;BME280;19554;42.652;23.364;2022-07-05T08:24:10;94738.97;;;31.45;29.30
33191;BME280;19554;42.652;23.364;2022-07-05T08:26:36;94733.28;;;31.56;29.09
33191;BME280;19554;42.652;23.364;2022-07-05T08:29:04;94696.59;;;31.35;29.42
33191;BME280;19554;42.652;23.364;2022-07-05T08:31:32;94739.84;;;31.85;29.34
33191;BME280;19554;42.652;23.364;2022-07-05T08:33:59;94746.34;;;31.75;29.29
33191;BME280;19554;42.652;23.364;2022-07-05T08:36:24;94697.19;;;31.47;29.04
33191;BME280;19554;42.652;23.364;2022-07-05T08:38:50;94735.63;;;31.57;29.03
33191;BME280;19554;42.652;23.364;2022-07-05T08:41:18;94726.25;;;31.51;29.24
33191;BME280;19554;42.652;23.364;2022-07-05T08:43:45;94729.19;;;31.64;29.29
33191;BME280;19554;42.652;23.364;2022-07-05T08:46:12;94724.03;;;31.90;29.10
33191;BME280;19554;42.652;23.364;2022-07-05T08:48:41;94677.41;;;31.95;28.95
33191;BME280;19554;42.652;23.364;2022-07-05T08:51:14;94727.63;;;32.50;28.53
33191;BME280;19554;42.652;23.364;2022-07-05T08:53:41;94724.75;;;32.33;27.79
33191;BME280;19554;42.652;23.364;2022-07-05T08:56:11;94715.56;;;32.20;27.78
33191;BME280;19554;42.652;23.364;2022-07-05T08:58:37;94717.81;;;32.05;28.52
33191;BME280;19554;42.652;23.364;2022-07-05T09:01:03;94694.41;;;31.94;28.63
33191;BME280;19554;42.652;23.364;2022-07-05T09:03:36;94714.59;;;32.11;28.07
33191;BME280;19554;42.652;23.364;2022-07-05T09:06:05;94695.75;;;32.25;28.52
33191;BME280;19554;42.652;23.364;2022-07-05T09:08:35;94699.84;;;32.57;27.94
33191;BME280;19554;42.652;23.364;2022-07-05T09:11:04;94701.53;;;32.51;28.78
33191;BME280;19554;42.652;23.364;2022-07-05T09:13:48;94699.00;;;32.60;28.21
33191;BME280;19554;42.652;23.364;2022-07-05T09:16:14;94694.84;;;32.68;27.82
33191;BME280;19554;42.652;23.364;2022-07-05T09:18:46;94700.91;;;32.63;28.01
33191;BME280;19554;42.652;23.364;2022-07-05T09:21:19;94694.84;;;32.68;27.59
33191;BME280;19554;42.652;23.364;2022-07-05T09:24:13;94682.81;;;32.95;27.52
33191;BME280;19554;42.652;23.364;2022-07-05T09:29:09;94677.50;;;33.04;27.11
33191;BME280;19554;42.652;23.364;2022-07-05T09:31:40;94678.50;;;32.94;27.29
33191;BME280;19554;42.652;23.364;2022-07-05T09:34:13;94678.28;;;32.85;27.59
33191;BME280;19554;42.652;23.364;2022-07-05T09:37:00;94678.44;;;32.61;27.68
33191;BME280;19554;42.652;23.364;2022-07-05T09:42:16;94662.56;;;32.65;28.90
33191;BME280;19554;42.652;23.364;2022-07-05T09:44:53;94677.97;;;32.83;28.93
33191;BME280;19554;42.652;23.364;2022-07-05T09:47:23;94629.22;;;32.36;28.62
33191;BME280;19554;42.652;23.364;2022-07-05T09:49:53;94672.72;;;32.52;29.06
33191;BME280;19554;42.652;23.364;2022-07-05T09:55:11;94662.00;;;32.54;28.61
33191;BME280;19554;42.652;23.364;2022-07-05T09:57:38;94600.06;;;32.15;29.25
33191;BME280;19554;42.652;23.364;2022-07-05T10:00:12;94664.50;;;32.48;29.86
33191;BME280;19554;42.652;23.364;2022-07-05T10:02:48;94638.78;;;32.31;29.58
33191;BME280;19554;42.652;23.364;2022-07-05T10:05:23;94654.41;;;32.42;29.81
33191;BME280;19554;42.652;23.364;2022-07-05T10:07:56;94640.66;;;32.54;29.66
33191;BME280;19554;42.652;23.364;2022-07-05T10:10:27;94654.59;;;32.67;28.78
33191;BME280;19554;42.652;23.364;2022-07-05T10:12:55;94647.38;;;32.73;29.18
33191;BME280;19554;42.652;23.364;2022-07-05T10:15:26;94645.13;;;32.85;28.81
33191;BME280;19554;42.652;23.364;2022-07-05T10:18:07;94640.91;;;32.80;29.25
33191;BME280;19554;42.652;23.364;2022-07-05T10:23:03;94635.38;;;32.44;30.02
33191;BME280;19554;42.652;23.364;2022-07-05T10:25:29;94632.63;;;32.24;30.09
33191;BME280;19554;42.652;23.364;2022-07-05T10:27:56;94636.69;;;32.19;30.39
33191;BME280;19554;42.652;23.364;2022-07-05T10:30:24;94570.16;;;31.94;29.55
33191;BME280;19554;42.652;23.364;2022-07-05T10:32:50;94626.31;;;32.23;29.85
33191;BME280;19554;42.652;23.364;2022-07-05T10:35:16;94590.41;;;32.07;29.99
33191;BME280;19554;42.652;23.364;2022-07-05T10:37:43;94616.44;;;32.06;29.50
33191;BME280;19554;42.652;23.364;2022-07-05T10:40:09;94615.38;;;32.00;29.89
33191;BME280;19554;42.652;23.364;2022-07-05T10:42:44;94575.22;;;31.75;29.66
33191;BME280;19554;42.652;23.364;2022-07-05T10:50:54;94606.00;;;31.30;32.29
33191;BME280;19554;42.652;23.364;2022-07-05T10:53:24;94611.41;;;31.14;32.38
33191;BME280;19554;42.652;23.364;2022-07-05T10:55:53;94607.59;;;31.08;32.55
33191;BME280;19554;42.652;23.364;2022-07-05T11:00:46;94596.91;;;31.33;31.99
33191;BME280;19554;42.652;23.364;2022-07-05T11:03:41;94600.75;;;31.39;32.22
33191;BME280;19554;42.652;23.364;2022-07-05T11:06:08;94592.91;;;31.58;31.96
33191;BME280;19554;42.652;23.364;2022-07-05T11:11:30;94591.22;;;31.64;31.68
33191;BME280;19554;42.652;23.364;2022-07-05T11:13:56;94543.03;;;31.49;31.32
33191;BME280;19554;42.652;23.364;2022-07-05T11:16:30;94584.44;;;31.89;31.01
33191;BME280;19554;42.652;23.364;2022-07-05T11:19:16;94589.25;;;31.84;31.04
33191;BME280;19554;42.652;23.364;2022-07-05T11:24:27;94578.19;;;31.84;30.35
33191;BME280;19554;42.652;23.364;2022-07-05T11:26:57;94584.84;;;31.67;29.59
33191;BME280;19554;42.652;23.364;2022-07-05T11:29:49;94593.97;;;31.64;30.60
33191;BME280;19554;42.652;23.364;2022-07-05T11:34:55;94590.94;;;31.38;31.31
33191;BME280;19554;42.652;23.364;2022-07-05T11:37:26;94584.63;;;31.58;30.58
33191;BME280;19554;42.652;23.364;2022-07-05T11:42:38;94587.94;;;31.69;30.52
33191;BME280;19554;42.652;23.364;2022-07-05T11:45:10;94584.50;;;31.65;29.83
33191;BME280;19554;42.652;23.364;2022-07-05T11:47:36;94577.66;;;31.73;29.67
33191;BME280;19554;42.652;23.364;2022-07-05T11:50:02;94572.06;;;31.77;30.38
33191;BME280;19554;42.652;23.364;2022-07-05T11:52:30;94571.63;;;31.98;30.32
33191;BME280;19554;42.652;23.364;2022-07-05T11:54:59;94563.25;;;31.82;30.11
33191;BME280;19554;42.652;23.364;2022-07-05T11:57:25;94559.97;;;31.91;29.56
33191;BME280;19554;42.652;23.364;2022-07-05T11:59:51;94539.28;;;31.99;29.74
33191;BME280;19554;42.652;23.364;2022-07-05T12:02:17;94545.50;;;32.03;29.37
33191;BME280;19554;42.652;23.364;2022-07-05T12:04:51;94552.44;;;32.11;29.70
33191;BME280;19554;42.652;23.364;2022-07-05T12:07:34;94482.47;;;31.61;29.17
33191;BME280;19554;42.652;23.364;2022-07-05T12:10:01;94544.78;;;31.99;29.28
33191;BME280;19554;42.652;23.364;2022-07-05T12:12:46;94536.03;;;32.04;29.42
33191;BME280;19554;42.652;23.364;2022-07-05T12:15:20;94535.94;;;32.07;29.37
33191;BME280;19554;42.652;23.364;2022-07-05T12:17:50;94540.19;;;32.28;29.32
33191;BME280;19554;42.652;23.364;2022-07-05T12:20:22;94535.91;;;32.44;29.11
33191;BME280;19554;42.652;23.364;2022-07-05T12:22:49;94540.63;;;32.27;28.85
33191;BME280;19554;42.652;23.364;2022-07-05T12:25:20;94535.56;;;32.05;30.68
33191;BME280;19554;42.652;23.364;2022-07-05T12:27:47;94447.19;;;31.53;30.33
33191;BME280;19554;42.652;23.364;2022-07-05T12:30:14;94521.53;;;32.16;29.49
33191;BME280;19554;42.652;23.364;2022-07-05T12:33:00;94521.38;;;32.23;29.66
33191;BME280;19554;42.652;23.364;2022-07-05T12:35:41;94531.16;;;32.44;30.23
33191;BME280;19554;42.652;23.364;2022-07-05T12:38:18;94520.34;;;32.33;30.13
33191;BME280;19554;42.652;23.364;2022-07-05T12:40:48;94521.59;;;32.49;30.20
33191;BME280;19554;42.652;23.364;2022-07-05T12:43:15;94523.09;;;32.33;29.79
33191;BME280;19554;42.652;23.364;2022-07-05T12:45:43;94522.53;;;32.06;30.22
33191;BME280;19554;42.652;23.364;2022-07-05T12:48:10;94513.06;;;32.23;29.48
33191;BME280;19554;42.652;23.364;2022-07-05T12:50:50;94435.59;;;31.78;29.97
33191;BME280;19554;42.652;23.364;2022-07-05T12:53:17;94474.47;;;32.03;30.07
33191;BME280;19554;42.652;23.364;2022-07-05T12:56:03;94507.06;;;32.28;29.41
33191;BME280;19554;42.652;23.364;2022-07-05T12:58:58;94494.97;;;32.39;30.17
33191;BME280;19554;42.652;23.364;2022-07-05T13:01:32;94498.41;;;32.26;30.44
33191;BME280;19554;42.652;23.364;2022-07-05T13:04:05;94492.69;;;32.01;30.47
33191;BME280;19554;42.652;23.364;2022-07-05T13:12:11;94479.78;;;32.14;30.57
33191;BME280;19554;42.652;23.364;2022-07-05T13:14:38;94487.44;;;32.23;31.69
33191;BME280;19554;42.652;23.364;2022-07-05T13:17:05;94481.84;;;32.26;31.60
33191;BME280;19554;42.652;23.364;2022-07-05T13:19:30;94480.28;;;32.25;31.82
33191;BME280;19554;42.652;23.364;2022-07-05T13:21:56;94491.34;;;32.25;30.61
33191;BME280;19554;42.652;23.364;2022-07-05T13:24:21;94487.63;;;32.16;30.54
33191;BME280;19554;42.652;23.364;2022-07-05T13:26:47;94478.91;;;32.17;30.59
33191;BME280;19554;42.652;23.364;2022-07-05T13:29:12;94484.56;;;31.94;31.64
33191;BME280;19554;42.652;23.364;2022-07-05T13:31:38;94484.56;;;32.10;31.03